sensor_id;sensor_type;location;lat;lon;timestamp;P1;durP1;ratioP1;P2;durP2;ratioP2
12196;SDS011;6161;43.014;25.840;2022-10-16T00:03:31;1.90;;;1.70;;
12196;SDS011;6161;43.014;25.840;2022-10-16T00:05:58;1.90;;;1.70;;
12196;SDS011;6161;43.014;25.840;2022-10-16T00:08:24;1.73;;;1.63;;
12196;SDS011;6161;43.014;25.840;2022-10-16T00:10:49;1.90;;;1.53;;
12196;SDS011;6161;43.014;25.840;2022-10-16T00:13:14;4.30;;;2.70;;
12196;SDS011;6161;43.014;25.840;2022-10-16T00:15:42;1.90;;;1.63;;
12196;SDS011;6161;43.014;25.840;2022-10-16T00:18:09;2.03;;;1.73;;
12196;SDS011;6161;43.014;25.840;2022-10-16T00:20:34;2.27;;;2.07;;
12196;SDS011;6161;43.014;25.840;2022-10-16T00:23:01;2.30;;;2.00;;
12196;SDS011;6161;43.014;25.840;2022-10-16T00:25:28;1.83;;;1.70;;
12196;SDS011;6161;43.014;25.840;2022-10-16T00:27:53;2.50;;;2.27;;
12196;SDS011;6161;43.014;25.840;2022-10-16T00:30:18;1.67;;;1.57;;
12196;SDS011;6161;43.014;25.840;2022-10-16T00:32:44;1.50;;;1.40;;
12196;SDS011;6161;43.014;25.840;2022-10-16T00:35:09;1.50;;;1.40;;
12196;SDS011;6161;43.014;25.840;2022-10-16T00:37:37;1.87;;;1.53;;
12196;SDS011;6161;43.014;25.840;2022-10-16T00:40:02;1.50;;;1.40;;
12196;SDS011;6161;43.014;25.840;2022-10-16T00:42:28;2.53;;;1.67;;
12196;SDS011;6161;43.014;25.840;2022-10-16T00:44:54;1.87;;;1.50;;
12196;SDS011;6161;43.014;25.840;2022-10-16T00:47:27;1.60;;;1.50;;
12196;SDS011;6161;43.014;25.840;2022-10-16T00:50:13;1.70;;;1.60;;
12196;SDS011;6161;43.014;25.840;2022-10-16T00:52:51;1.77;;;1.53;;
12196;SDS011;6161;43.014;25.840;2022-10-16T00:55:23;1.70;;;1.47;;
12196;SDS011;6161;43.014;25.840;2022-10-16T00:57:49;1.33;;;1.27;;
12196;SDS011;6161;43.014;25.840;2022-10-16T01:00:19;1.60;;;1.27;;
12196;SDS011;6161;43.014;25.840;2022-10-16T01:02:56;1.60;;;1.50;;
12196;SDS011;6161;43.014;25.840;2022-10-16T01:05:22;1.70;;;1.60;;
12196;SDS011;6161;43.014;25.840;2022-10-16T01:10:54;2.43;;;1.87;;
12196;SDS011;6161;43.014;25.840;2022-10-16T01:13:26;1.60;;;1.37;;
12196;SDS011;6161;43.014;25.840;2022-10-16T01:18:32;1.57;;;1.47;;
12196;SDS011;6161;43.014;25.840;2022-10-16T01:21:01;1.50;;;1.40;;
12196;SDS011;6161;43.014;25.840;2022-10-16T01:23:34;1.40;;;1.30;;
12196;SDS011;6161;43.014;25.840;2022-10-16T01:31:10;3.73;;;1.70;;
12196;SDS011;6161;43.014;25.840;2022-10-16T01:33:39;1.50;;;1.37;;
12196;SDS011;6161;43.014;25.840;2022-10-16T01:36:08;1.60;;;1.37;;
12196;SDS011;6161;43.014;25.840;2022-10-16T01:38:36;1.90;;;1.70;;
12196;SDS011;6161;43.014;25.840;2022-10-16T01:41:10;2.17;;;1.87;;
12196;SDS011;6161;43.014;25.840;2022-10-16T01:43:37;1.47;;;1.30;;
12196;SDS011;6161;43.014;25.840;2022-10-16T01:46:04;1.80;;;1.70;;
12196;SDS011;6161;43.014;25.840;2022-10-16T01:48:30;1.93;;;1.63;;
12196;SDS011;6161;43.014;25.840;2022-10-16T01:51:09;1.70;;;1.60;;
12196;SDS011;6161;43.014;25.840;2022-10-16T01:53:35;1.30;;;1.20;;
12196;SDS011;6161;43.014;25.840;2022-10-16T01:56:01;2.17;;;1.83;;
12196;SDS011;6161;43.014;25.840;2022-10-16T01:58:28;1.93;;;1.83;;
12196;SDS011;6161;43.014;25.840;2022-10-16T02:00:59;1.37;;;1.27;;
12196;SDS011;6161;43.014;25.840;2022-10-16T02:03:24;1.77;;;1.67;;
12196;SDS011;6161;43.014;25.840;2022-10-16T02:05:50;1.60;;;1.50;;
12196;SDS011;6161;43.014;25.840;2022-10-16T02:08:16;1.43;;;1.33;;
12196;SDS011;6161;43.014;25.840;2022-10-16T02:10:42;1.50;;;1.40;;
12196;SDS011;6161;43.014;25.840;2022-10-16T02:13:17;1.73;;;1.60;;
12196;SDS011;6161;43.014;25.840;2022-10-16T02:15:44;1.93;;;1.67;;
12196;SDS011;6161;43.014;25.840;2022-10-16T02:18:10;2.00;;;1.77;;
12196;SDS011;6161;43.014;25.840;2022-10-16T02:20:48;1.60;;;1.50;;
12196;SDS011;6161;43.014;25.840;2022-10-16T02:23:19;1.30;;;1.20;;
12196;SDS011;6161;43.014;25.840;2022-10-16T02:25:45;1.53;;;1.43;;
12196;SDS011;6161;43.014;25.840;2022-10-16T02:28:22;2.70;;;1.80;;
12196;SDS011;6161;43.014;25.840;2022-10-16T02:30:52;1.23;;;1.13;;
12196;SDS011;6161;43.014;25.840;2022-10-16T02:33:21;1.87;;;1.60;;
12196;SDS011;6161;43.014;25.840;2022-10-16T02:35:47;1.50;;;1.40;;
12196;SDS011;6161;43.014;25.840;2022-10-16T02:38:18;1.80;;;1.63;;
12196;SDS011;6161;43.014;25.840;2022-10-16T02:40:45;1.50;;;1.40;;
12196;SDS011;6161;43.014;25.840;2022-10-16T02:43:13;2.20;;;1.50;;
12196;SDS011;6161;43.014;25.840;2022-10-16T02:45:39;2.23;;;1.47;;
12196;SDS011;6161;43.014;25.840;2022-10-16T02:48:07;1.80;;;1.70;;
12196;SDS011;6161;43.014;25.840;2022-10-16T02:50:35;3.03;;;1.27;;
12196;SDS011;6161;43.014;25.840;2022-10-16T02:53:00;3.03;;;1.53;;
12196;SDS011;6161;43.014;25.840;2022-10-16T02:55:25;1.17;;;1.17;;
12196;SDS011;6161;43.014;25.840;2022-10-16T02:57:52;1.70;;;1.27;;
12196;SDS011;6161;43.014;25.840;2022-10-16T03:00:19;1.70;;;1.60;;
12196;SDS011;6161;43.014;25.840;2022-10-16T03:02:44;1.40;;;1.30;;
12196;SDS011;6161;43.014;25.840;2022-10-16T03:05:10;1.60;;;1.50;;
12196;SDS011;6161;43.014;25.840;2022-10-16T03:07:35;1.40;;;1.33;;
12196;SDS011;6161;43.014;25.840;2022-10-16T03:10:01;1.13;;;1.03;;
12196;SDS011;6161;43.014;25.840;2022-10-16T03:12:27;2.73;;;1.47;;
12196;SDS011;6161;43.014;25.840;2022-10-16T03:15:04;1.70;;;1.60;;
12196;SDS011;6161;43.014;25.840;2022-10-16T03:17:32;1.50;;;1.40;;
12196;SDS011;6161;43.014;25.840;2022-10-16T03:19:58;1.90;;;1.70;;
12196;SDS011;6161;43.014;25.840;2022-10-16T03:22:23;1.57;;;1.40;;
12196;SDS011;6161;43.014;25.840;2022-10-16T03:24:48;1.40;;;1.30;;
12196;SDS011;6161;43.014;25.840;2022-10-16T03:27:14;1.00;;;1.00;;
12196;SDS011;6161;43.014;25.840;2022-10-16T03:29:45;1.97;;;1.30;;
12196;SDS011;6161;43.014;25.840;2022-10-16T03:32:14;1.57;;;1.30;;
12196;SDS011;6161;43.014;25.840;2022-10-16T03:34:42;1.40;;;1.27;;
12196;SDS011;6161;43.014;25.840;2022-10-16T03:37:07;1.17;;;1.10;;
12196;SDS011;6161;43.014;25.840;2022-10-16T03:39:36;1.33;;;1.30;;
12196;SDS011;6161;43.014;25.840;2022-10-16T03:42:01;1.27;;;1.23;;
12196;SDS011;6161;43.014;25.840;2022-10-16T03:44:26;1.67;;;1.53;;
12196;SDS011;6161;43.014;25.840;2022-10-16T03:46:52;1.40;;;1.30;;
12196;SDS011;6161;43.014;25.840;2022-10-16T03:49:20;1.50;;;1.40;;
12196;SDS011;6161;43.014;25.840;2022-10-16T03:51:52;1.33;;;1.20;;
12196;SDS011;6161;43.014;25.840;2022-10-16T03:54:21;1.50;;;1.40;;
12196;SDS011;6161;43.014;25.840;2022-10-16T03:56:47;1.73;;;1.53;;
12196;SDS011;6161;43.014;25.840;2022-10-16T03:59:12;1.53;;;1.43;;
12196;SDS011;6161;43.014;25.840;2022-10-16T04:01:37;2.40;;;1.50;;
12196;SDS011;6161;43.014;25.840;2022-10-16T04:04:03;1.57;;;1.47;;
12196;SDS011;6161;43.014;25.840;2022-10-16T04:06:29;1.50;;;1.40;;
12196;SDS011;6161;43.014;25.840;2022-10-16T04:09:01;1.60;;;1.50;;
12196;SDS011;6161;43.014;25.840;2022-10-16T04:11:29;1.63;;;1.53;;
12196;SDS011;6161;43.014;25.840;2022-10-16T04:13:54;1.90;;;1.70;;
12196;SDS011;6161;43.014;25.840;2022-10-16T04:16:19;1.90;;;1.70;;
12196;SDS011;6161;43.014;25.840;2022-10-16T04:18:45;1.13;;;1.00;;
12196;SDS011;6161;43.014;25.840;2022-10-16T04:21:10;1.20;;;1.10;;
12196;SDS011;6161;43.014;25.840;2022-10-16T04:23:35;1.10;;;1.10;;
12196;SDS011;6161;43.014;25.840;2022-10-16T04:26:01;1.27;;;1.17;;
12196;SDS011;6161;43.014;25.840;2022-10-16T04:28:26;1.70;;;1.50;;
12196;SDS011;6161;43.014;25.840;2022-10-16T04:30:51;1.43;;;1.33;;
12196;SDS011;6161;43.014;25.840;2022-10-16T04:33:17;1.83;;;1.47;;
12196;SDS011;6161;43.014;25.840;2022-10-16T04:35:42;1.90;;;1.50;;
12196;SDS011;6161;43.014;25.840;2022-10-16T04:38:07;1.97;;;1.53;;
12196;SDS011;6161;43.014;25.840;2022-10-16T04:40:33;1.57;;;1.30;;
12196;SDS011;6161;43.014;25.840;2022-10-16T04:43:01;1.60;;;1.50;;
12196;SDS011;6161;43.014;25.840;2022-10-16T04:45:26;1.60;;;1.50;;
12196;SDS011;6161;43.014;25.840;2022-10-16T04:47:51;1.33;;;1.23;;
12196;SDS011;6161;43.014;25.840;2022-10-16T04:50:16;1.83;;;1.23;;
12196;SDS011;6161;43.014;25.840;2022-10-16T04:52:42;1.03;;;1.03;;
12196;SDS011;6161;43.014;25.840;2022-10-16T04:55:07;1.70;;;1.60;;
12196;SDS011;6161;43.014;25.840;2022-10-16T04:57:32;1.43;;;1.33;;
12196;SDS011;6161;43.014;25.840;2022-10-16T04:59:58;3.87;;;1.67;;
12196;SDS011;6161;43.014;25.840;2022-10-16T05:02:24;1.60;;;1.47;;
12196;SDS011;6161;43.014;25.840;2022-10-16T05:04:49;3.23;;;1.40;;
12196;SDS011;6161;43.014;25.840;2022-10-16T05:07:17;1.97;;;1.80;;
12196;SDS011;6161;43.014;25.840;2022-10-16T05:09:42;1.57;;;1.33;;
12196;SDS011;6161;43.014;25.840;2022-10-16T05:12:07;1.40;;;1.30;;
12196;SDS011;6161;43.014;25.840;2022-10-16T05:14:33;1.73;;;1.63;;
12196;SDS011;6161;43.014;25.840;2022-10-16T05:16:59;1.30;;;1.23;;
12196;SDS011;6161;43.014;25.840;2022-10-16T05:19:24;1.60;;;1.50;;
12196;SDS011;6161;43.014;25.840;2022-10-16T05:21:49;1.40;;;1.20;;
12196;SDS011;6161;43.014;25.840;2022-10-16T05:24:15;1.80;;;1.50;;
12196;SDS011;6161;43.014;25.840;2022-10-16T05:26:40;1.43;;;1.33;;
12196;SDS011;6161;43.014;25.840;2022-10-16T05:29:05;1.60;;;1.50;;
12196;SDS011;6161;43.014;25.840;2022-10-16T05:31:31;2.83;;;2.60;;
12196;SDS011;6161;43.014;25.840;2022-10-16T05:33:59;3.93;;;2.63;;
12196;SDS011;6161;43.014;25.840;2022-10-16T05:36:25;2.53;;;2.30;;
12196;SDS011;6161;43.014;25.840;2022-10-16T05:38:50;2.23;;;1.80;;
12196;SDS011;6161;43.014;25.840;2022-10-16T05:41:16;2.57;;;1.90;;
12196;SDS011;6161;43.014;25.840;2022-10-16T05:43:46;1.97;;;1.80;;
12196;SDS011;6161;43.014;25.840;2022-10-16T05:46:11;4.20;;;2.00;;
12196;SDS011;6161;43.014;25.840;2022-10-16T05:48:36;2.60;;;2.40;;
12196;SDS011;6161;43.014;25.840;2022-10-16T05:51:05;2.50;;;2.30;;
12196;SDS011;6161;43.014;25.840;2022-10-16T05:53:35;2.40;;;2.20;;
12196;SDS011;6161;43.014;25.840;2022-10-16T05:56:01;4.33;;;2.03;;
12196;SDS011;6161;43.014;25.840;2022-10-16T05:58:36;2.37;;;1.90;;
12196;SDS011;6161;43.014;25.840;2022-10-16T06:01:03;2.30;;;1.90;;
12196;SDS011;6161;43.014;25.840;2022-10-16T06:03:28;2.03;;;1.83;;
12196;SDS011;6161;43.014;25.840;2022-10-16T06:05:54;2.47;;;2.10;;
12196;SDS011;6161;43.014;25.840;2022-10-16T06:08:20;2.23;;;1.90;;
12196;SDS011;6161;43.014;25.840;2022-10-16T06:10:46;2.40;;;2.20;;
12196;SDS011;6161;43.014;25.840;2022-10-16T06:13:12;2.97;;;1.97;;
12196;SDS011;6161;43.014;25.840;2022-10-16T06:15:38;2.57;;;2.10;;
12196;SDS011;6161;43.014;25.840;2022-10-16T06:18:04;2.20;;;2.00;;
12196;SDS011;6161;43.014;25.840;2022-10-16T06:20:29;2.43;;;1.97;;
12196;SDS011;6161;43.014;25.840;2022-10-16T06:22:54;2.17;;;1.97;;
12196;SDS011;6161;43.014;25.840;2022-10-16T06:25:20;2.20;;;2.00;;
12196;SDS011;6161;43.014;25.840;2022-10-16T06:27:45;2.40;;;2.20;;
12196;SDS011;6161;43.014;25.840;2022-10-16T06:30:10;2.33;;;2.10;;
12196;SDS011;6161;43.014;25.840;2022-10-16T06:32:36;2.47;;;2.07;;
12196;SDS011;6161;43.014;25.840;2022-10-16T06:35:01;2.27;;;2.07;;
12196;SDS011;6161;43.014;25.840;2022-10-16T06:37:29;1.93;;;1.80;;
12196;SDS011;6161;43.014;25.840;2022-10-16T06:39:54;2.80;;;2.00;;
12196;SDS011;6161;43.014;25.840;2022-10-16T06:42:19;2.33;;;2.13;;
12196;SDS011;6161;43.014;25.840;2022-10-16T06:44:44;2.37;;;2.17;;
12196;SDS011;6161;43.014;25.840;2022-10-16T06:47:10;2.67;;;2.40;;
12196;SDS011;6161;43.014;25.840;2022-10-16T06:49:35;2.40;;;2.20;;
12196;SDS011;6161;43.014;25.840;2022-10-16T06:52:04;3.37;;;1.90;;
12196;SDS011;6161;43.014;25.840;2022-10-16T06:54:44;2.37;;;1.80;;
12196;SDS011;6161;43.014;25.840;2022-10-16T06:57:12;1.93;;;1.83;;
12196;SDS011;6161;43.014;25.840;2022-10-16T06:59:38;3.80;;;2.60;;
12196;SDS011;6161;43.014;25.840;2022-10-16T07:02:03;3.80;;;2.50;;
12196;SDS011;6161;43.014;25.840;2022-10-16T07:04:28;3.40;;;2.10;;
12196;SDS011;6161;43.014;25.840;2022-10-16T07:06:53;1.90;;;1.80;;
12196;SDS011;6161;43.014;25.840;2022-10-16T07:09:19;2.07;;;1.90;;
12196;SDS011;6161;43.014;25.840;2022-10-16T07:11:44;3.37;;;2.27;;
12196;SDS011;6161;43.014;25.840;2022-10-16T07:14:16;1.97;;;1.87;;
12196;SDS011;6161;43.014;25.840;2022-10-16T07:16:42;5.13;;;1.90;;
12196;SDS011;6161;43.014;25.840;2022-10-16T07:19:08;2.97;;;1.93;;
12196;SDS011;6161;43.014;25.840;2022-10-16T07:21:33;2.10;;;1.90;;
12196;SDS011;6161;43.014;25.840;2022-10-16T07:24:04;2.23;;;2.03;;
12196;SDS011;6161;43.014;25.840;2022-10-16T07:26:30;2.10;;;1.93;;
12196;SDS011;6161;43.014;25.840;2022-10-16T07:28:56;2.47;;;2.27;;
12196;SDS011;6161;43.014;25.840;2022-10-16T07:31:22;5.97;;;1.97;;
12196;SDS011;6161;43.014;25.840;2022-10-16T07:33:48;1.70;;;1.60;;
12196;SDS011;6161;43.014;25.840;2022-10-16T07:36:14;3.23;;;2.17;;
12196;SDS011;6161;43.014;25.840;2022-10-16T07:38:39;2.00;;;1.80;;
12196;SDS011;6161;43.014;25.840;2022-10-16T07:41:09;1.97;;;1.60;;
12196;SDS011;6161;43.014;25.840;2022-10-16T07:43:36;2.17;;;1.80;;
12196;SDS011;6161;43.014;25.840;2022-10-16T07:46:02;2.67;;;2.10;;
12196;SDS011;6161;43.014;25.840;2022-10-16T07:48:28;2.40;;;2.20;;
12196;SDS011;6161;43.014;25.840;2022-10-16T07:51:00;3.60;;;2.10;;
12196;SDS011;6161;43.014;25.840;2022-10-16T07:53:26;3.07;;;2.00;;
12196;SDS011;6161;43.014;25.840;2022-10-16T07:55:52;2.33;;;1.87;;
12196;SDS011;6161;43.014;25.840;2022-10-16T07:58:17;2.20;;;2.00;;
12196;SDS011;6161;43.014;25.840;2022-10-16T08:00:42;1.97;;;1.77;;
12196;SDS011;6161;43.014;25.840;2022-10-16T08:03:08;2.40;;;2.20;;
12196;SDS011;6161;43.014;25.840;2022-10-16T08:05:33;2.63;;;1.90;;
12196;SDS011;6161;43.014;25.840;2022-10-16T08:07:59;3.40;;;1.90;;
12196;SDS011;6161;43.014;25.840;2022-10-16T08:10:25;3.63;;;2.17;;
12196;SDS011;6161;43.014;25.840;2022-10-16T08:12:51;5.43;;;4.10;;
12196;SDS011;6161;43.014;25.840;2022-10-16T08:15:17;4.20;;;3.27;;
12196;SDS011;6161;43.014;25.840;2022-10-16T08:17:43;10.37;;;5.50;;
12196;SDS011;6161;43.014;25.840;2022-10-16T08:20:09;4.70;;;3.90;;
12196;SDS011;6161;43.014;25.840;2022-10-16T08:22:35;4.83;;;3.73;;
12196;SDS011;6161;43.014;25.840;2022-10-16T08:25:00;7.50;;;4.23;;
12196;SDS011;6161;43.014;25.840;2022-10-16T08:27:30;7.70;;;3.40;;
12196;SDS011;6161;43.014;25.840;2022-10-16T08:29:55;4.60;;;3.33;;
12196;SDS011;6161;43.014;25.840;2022-10-16T08:32:21;3.83;;;2.87;;
12196;SDS011;6161;43.014;25.840;2022-10-16T08:34:46;2.73;;;2.37;;
12196;SDS011;6161;43.014;25.840;2022-10-16T08:37:11;2.40;;;2.20;;
12196;SDS011;6161;43.014;25.840;2022-10-16T08:39:38;2.43;;;2.07;;
12196;SDS011;6161;43.014;25.840;2022-10-16T08:47:41;4.00;;;2.33;;
12196;SDS011;6161;43.014;25.840;2022-10-16T08:50:05;3.93;;;2.20;;
12196;SDS011;6161;43.014;25.840;2022-10-16T08:52:38;3.53;;;1.97;;
12196;SDS011;6161;43.014;25.840;2022-10-16T08:55:08;3.23;;;2.47;;
12196;SDS011;6161;43.014;25.840;2022-10-16T08:57:48;3.83;;;2.00;;
12196;SDS011;6161;43.014;25.840;2022-10-16T09:00:14;3.60;;;3.10;;
12196;SDS011;6161;43.014;25.840;2022-10-16T09:08:18;3.43;;;1.93;;
12196;SDS011;6161;43.014;25.840;2022-10-16T09:10:54;4.03;;;2.10;;
12196;SDS011;6161;43.014;25.840;2022-10-16T09:13:29;4.70;;;1.87;;
12196;SDS011;6161;43.014;25.840;2022-10-16T09:18:43;6.23;;;3.30;;
12196;SDS011;6161;43.014;25.840;2022-10-16T09:21:13;4.13;;;2.47;;
12196;SDS011;6161;43.014;25.840;2022-10-16T09:23:39;2.57;;;2.37;;
12196;SDS011;6161;43.014;25.840;2022-10-16T09:26:05;2.70;;;2.20;;
12196;SDS011;6161;43.014;25.840;2022-10-16T09:28:34;3.57;;;2.30;;
12196;SDS011;6161;43.014;25.840;2022-10-16T09:30:59;4.80;;;2.27;;
12196;SDS011;6161;43.014;25.840;2022-10-16T09:33:25;2.80;;;2.17;;
12196;SDS011;6161;43.014;25.840;2022-10-16T09:35:53;4.07;;;2.67;;
12196;SDS011;6161;43.014;25.840;2022-10-16T09:40:53;3.13;;;1.80;;
12196;SDS011;6161;43.014;25.840;2022-10-16T09:43:23;2.43;;;2.17;;
12196;SDS011;6161;43.014;25.840;2022-10-16T09:45:59;2.00;;;1.63;;
12196;SDS011;6161;43.014;25.840;2022-10-16T09:48:47;2.43;;;1.83;;
12196;SDS011;6161;43.014;25.840;2022-10-16T09:51:47;1.80;;;1.67;;
12196;SDS011;6161;43.014;25.840;2022-10-16T09:56:35;1.80;;;1.60;;
12196;SDS011;6161;43.014;25.840;2022-10-16T10:01:39;4.30;;;1.67;;
12196;SDS011;6161;43.014;25.840;2022-10-16T10:04:06;1.93;;;1.77;;
12196;SDS011;6161;43.014;25.840;2022-10-16T10:06:36;1.90;;;1.80;;
12196;SDS011;6161;43.014;25.840;2022-10-16T10:09:15;6.67;;;2.33;;
12196;SDS011;6161;43.014;25.840;2022-10-16T10:11:46;1.80;;;1.70;;
12196;SDS011;6161;43.014;25.840;2022-10-16T10:14:23;1.50;;;1.40;;
12196;SDS011;6161;43.014;25.840;2022-10-16T10:16:49;2.27;;;1.83;;
12196;SDS011;6161;43.014;25.840;2022-10-16T10:19:20;1.73;;;1.63;;
12196;SDS011;6161;43.014;25.840;2022-10-16T10:21:46;1.83;;;1.70;;
12196;SDS011;6161;43.014;25.840;2022-10-16T10:24:15;4.00;;;3.60;;
12196;SDS011;6161;43.014;25.840;2022-10-16T10:26:54;1.80;;;1.70;;
12196;SDS011;6161;43.014;25.840;2022-10-16T10:29:28;2.97;;;1.90;;
12196;SDS011;6161;43.014;25.840;2022-10-16T10:32:00;2.10;;;2.00;;
12196;SDS011;6161;43.014;25.840;2022-10-16T10:36:58;2.53;;;2.33;;
12196;SDS011;6161;43.014;25.840;2022-10-16T10:39:49;2.70;;;2.00;;
12196;SDS011;6161;43.014;25.840;2022-10-16T10:45:12;2.47;;;2.27;;
12196;SDS011;6161;43.014;25.840;2022-10-16T10:55:15;2.93;;;1.90;;
12196;SDS011;6161;43.014;25.840;2022-10-16T11:01:44;1.70;;;1.57;;
12196;SDS011;6161;43.014;25.840;2022-10-16T11:06:50;3.33;;;1.90;;
12196;SDS011;6161;43.014;25.840;2022-10-16T11:12:11;1.67;;;1.50;;
12196;SDS011;6161;43.014;25.840;2022-10-16T11:14:41;2.20;;;1.93;;
12196;SDS011;6161;43.014;25.840;2022-10-16T11:17:12;2.00;;;1.80;;
12196;SDS011;6161;43.014;25.840;2022-10-16T11:22:46;1.97;;;1.70;;
12196;SDS011;6161;43.014;25.840;2022-10-16T11:25:14;3.27;;;1.47;;
12196;SDS011;6161;43.014;25.840;2022-10-16T11:30:12;1.90;;;1.70;;
12196;SDS011;6161;43.014;25.840;2022-10-16T11:32:42;2.00;;;1.83;;
12196;SDS011;6161;43.014;25.840;2022-10-16T11:35:32;2.37;;;1.93;;
12196;SDS011;6161;43.014;25.840;2022-10-16T11:38:28;2.10;;;1.57;;
12196;SDS011;6161;43.014;25.840;2022-10-16T11:46:26;2.47;;;1.57;;
12196;SDS011;6161;43.014;25.840;2022-10-16T11:48:57;3.37;;;1.80;;
12196;SDS011;6161;43.014;25.840;2022-10-16T11:53:59;2.30;;;1.77;;
12196;SDS011;6161;43.014;25.840;2022-10-16T11:56:26;2.77;;;2.10;;
12196;SDS011;6161;43.014;25.840;2022-10-16T12:04:07;7.93;;;5.53;;
12196;SDS011;6161;43.014;25.840;2022-10-16T12:06:50;8.43;;;7.00;;
12196;SDS011;6161;43.014;25.840;2022-10-16T12:09:27;2.97;;;2.53;;
12196;SDS011;6161;43.014;25.840;2022-10-16T12:11:53;2.77;;;2.50;;
12196;SDS011;6161;43.014;25.840;2022-10-16T12:14:21;3.20;;;2.70;;
12196;SDS011;6161;43.014;25.840;2022-10-16T12:19:20;2.17;;;2.00;;
12196;SDS011;6161;43.014;25.840;2022-10-16T12:21:49;1.77;;;1.67;;
12196;SDS011;6161;43.014;25.840;2022-10-16T12:27:01;4.00;;;1.70;;
12196;SDS011;6161;43.014;25.840;2022-10-16T12:31:59;1.43;;;1.33;;
12196;SDS011;6161;43.014;25.840;2022-10-16T12:34:43;1.27;;;1.17;;
12196;SDS011;6161;43.014;25.840;2022-10-16T12:37:10;2.13;;;1.70;;
12196;SDS011;6161;43.014;25.840;2022-10-16T12:39:48;1.80;;;1.30;;
12196;SDS011;6161;43.014;25.840;2022-10-16T12:44:52;1.53;;;1.40;;
12196;SDS011;6161;43.014;25.840;2022-10-16T12:47:23;1.20;;;1.10;;
12196;SDS011;6161;43.014;25.840;2022-10-16T12:49:52;2.07;;;1.87;;
12196;SDS011;6161;43.014;25.840;2022-10-16T12:52:51;1.73;;;1.50;;
12196;SDS011;6161;43.014;25.840;2022-10-16T12:55:16;1.50;;;1.40;;
12196;SDS011;6161;43.014;25.840;2022-10-16T12:58:00;3.23;;;1.53;;
12196;SDS011;6161;43.014;25.840;2022-10-16T13:01:02;2.03;;;1.50;;
12196;SDS011;6161;43.014;25.840;2022-10-16T13:03:33;2.00;;;1.80;;
12196;SDS011;6161;43.014;25.840;2022-10-16T13:06:07;1.97;;;1.60;;
12196;SDS011;6161;43.014;25.840;2022-10-16T13:14:17;3.60;;;1.40;;
12196;SDS011;6161;43.014;25.840;2022-10-16T13:22:51;2.57;;;1.87;;
12196;SDS011;6161;43.014;25.840;2022-10-16T13:25:31;2.20;;;2.00;;
12196;SDS011;6161;43.014;25.840;2022-10-16T13:28:18;3.07;;;2.60;;
12196;SDS011;6161;43.014;25.840;2022-10-16T13:30:50;2.63;;;2.07;;
12196;SDS011;6161;43.014;25.840;2022-10-16T13:33:17;1.70;;;1.60;;
12196;SDS011;6161;43.014;25.840;2022-10-16T13:36:03;4.67;;;2.10;;
12196;SDS011;6161;43.014;25.840;2022-10-16T13:38:29;2.10;;;1.90;;
12196;SDS011;6161;43.014;25.840;2022-10-16T13:40:58;4.13;;;2.20;;
12196;SDS011;6161;43.014;25.840;2022-10-16T13:45:57;1.77;;;1.67;;
12196;SDS011;6161;43.014;25.840;2022-10-16T13:48:23;2.97;;;1.60;;
12196;SDS011;6161;43.014;25.840;2022-10-16T13:51:03;2.30;;;1.43;;
12196;SDS011;6161;43.014;25.840;2022-10-16T13:53:35;1.63;;;1.30;;
12196;SDS011;6161;43.014;25.840;2022-10-16T13:56:04;2.00;;;1.33;;
12196;SDS011;6161;43.014;25.840;2022-10-16T13:58:30;2.10;;;1.57;;
12196;SDS011;6161;43.014;25.840;2022-10-16T14:00:56;1.43;;;1.33;;
12196;SDS011;6161;43.014;25.840;2022-10-16T14:03:22;1.47;;;1.37;;
12196;SDS011;6161;43.014;25.840;2022-10-16T14:05:52;9.67;;;4.37;;
12196;SDS011;6161;43.014;25.840;2022-10-16T14:08:17;3.10;;;2.00;;
12196;SDS011;6161;43.014;25.840;2022-10-16T14:10:46;4.33;;;1.60;;
12196;SDS011;6161;43.014;25.840;2022-10-16T14:13:13;1.70;;;1.60;;
12196;SDS011;6161;43.014;25.840;2022-10-16T14:15:45;1.60;;;1.50;;
12196;SDS011;6161;43.014;25.840;2022-10-16T14:18:20;1.53;;;1.43;;
12196;SDS011;6161;43.014;25.840;2022-10-16T14:20:46;1.47;;;1.37;;
12196;SDS011;6161;43.014;25.840;2022-10-16T14:23:21;1.57;;;1.47;;
12196;SDS011;6161;43.014;25.840;2022-10-16T14:25:46;2.50;;;2.20;;
12196;SDS011;6161;43.014;25.840;2022-10-16T14:28:19;5.23;;;1.53;;
12196;SDS011;6161;43.014;25.840;2022-10-16T14:36:01;3.30;;;1.73;;
12196;SDS011;6161;43.014;25.840;2022-10-16T14:38:26;1.10;;;1.10;;
12196;SDS011;6161;43.014;25.840;2022-10-16T14:40:51;1.57;;;1.47;;
12196;SDS011;6161;43.014;25.840;2022-10-16T14:43:21;2.60;;;1.60;;
12196;SDS011;6161;43.014;25.840;2022-10-16T14:45:50;1.70;;;1.60;;
12196;SDS011;6161;43.014;25.840;2022-10-16T14:48:17;1.60;;;1.50;;
12196;SDS011;6161;43.014;25.840;2022-10-16T14:50:44;1.27;;;1.17;;
12196;SDS011;6161;43.014;25.840;2022-10-16T14:53:12;1.67;;;1.57;;
12196;SDS011;6161;43.014;25.840;2022-10-16T14:55:39;1.60;;;1.33;;
12196;SDS011;6161;43.014;25.840;2022-10-16T14:58:05;2.00;;;1.67;;
12196;SDS011;6161;43.014;25.840;2022-10-16T15:00:31;1.50;;;1.40;;
12196;SDS011;6161;43.014;25.840;2022-10-16T15:02:56;3.60;;;1.80;;
12196;SDS011;6161;43.014;25.840;2022-10-16T15:05:25;1.57;;;1.47;;
12196;SDS011;6161;43.014;25.840;2022-10-16T15:07:52;3.60;;;1.40;;
12196;SDS011;6161;43.014;25.840;2022-10-16T15:10:19;1.47;;;1.37;;
12196;SDS011;6161;43.014;25.840;2022-10-16T15:12:44;1.67;;;1.57;;
12196;SDS011;6161;43.014;25.840;2022-10-16T15:17:48;1.93;;;1.30;;
12196;SDS011;6161;43.014;25.840;2022-10-16T15:20:14;2.33;;;1.40;;
12196;SDS011;6161;43.014;25.840;2022-10-16T15:22:39;2.00;;;1.80;;
12196;SDS011;6161;43.014;25.840;2022-10-16T15:25:47;2.67;;;2.23;;
12196;SDS011;6161;43.014;25.840;2022-10-16T15:27:53;1.70;;;1.50;;
12196;SDS011;6161;43.014;25.840;2022-10-16T15:30:18;2.03;;;1.83;;
12196;SDS011;6161;43.014;25.840;2022-10-16T15:32:43;1.70;;;1.60;;
12196;SDS011;6161;43.014;25.840;2022-10-16T15:35:09;19.50;;;13.27;;
12196;SDS011;6161;43.014;25.840;2022-10-16T15:37:34;50.57;;;26.27;;
12196;SDS011;6161;43.014;25.840;2022-10-16T15:40:00;24.33;;;16.20;;
12196;SDS011;6161;43.014;25.840;2022-10-16T15:42:25;9.70;;;6.30;;
12196;SDS011;6161;43.014;25.840;2022-10-16T15:44:51;2.40;;;2.17;;
12196;SDS011;6161;43.014;25.840;2022-10-16T15:47:16;3.60;;;2.20;;
12196;SDS011;6161;43.014;25.840;2022-10-16T15:49:44;3.50;;;2.40;;
12196;SDS011;6161;43.014;25.840;2022-10-16T15:52:10;4.77;;;4.10;;
12196;SDS011;6161;43.014;25.840;2022-10-16T15:54:36;3.63;;;3.33;;
12196;SDS011;6161;43.014;25.840;2022-10-16T15:57:01;2.73;;;2.20;;
12196;SDS011;6161;43.014;25.840;2022-10-16T15:59:26;3.93;;;3.03;;
12196;SDS011;6161;43.014;25.840;2022-10-16T16:01:52;2.77;;;2.30;;
12196;SDS011;6161;43.014;25.840;2022-10-16T16:04:17;2.03;;;1.90;;
12196;SDS011;6161;43.014;25.840;2022-10-16T16:06:43;2.17;;;1.90;;
12196;SDS011;6161;43.014;25.840;2022-10-16T16:09:10;1.97;;;1.80;;
12196;SDS011;6161;43.014;25.840;2022-10-16T16:11:36;1.50;;;1.40;;
12196;SDS011;6161;43.014;25.840;2022-10-16T16:14:04;1.83;;;1.60;;
12196;SDS011;6161;43.014;25.840;2022-10-16T16:16:29;2.33;;;2.07;;
12196;SDS011;6161;43.014;25.840;2022-10-16T16:18:54;2.03;;;1.70;;
12196;SDS011;6161;43.014;25.840;2022-10-16T16:21:20;2.67;;;2.10;;
12196;SDS011;6161;43.014;25.840;2022-10-16T16:23:45;3.43;;;1.90;;
12196;SDS011;6161;43.014;25.840;2022-10-16T16:26:12;1.60;;;1.40;;
12196;SDS011;6161;43.014;25.840;2022-10-16T16:28:38;1.50;;;1.40;;
12196;SDS011;6161;43.014;25.840;2022-10-16T16:31:04;2.57;;;1.90;;
12196;SDS011;6161;43.014;25.840;2022-10-16T16:33:29;1.87;;;1.67;;
12196;SDS011;6161;43.014;25.840;2022-10-16T16:36:00;1.40;;;1.30;;
12196;SDS011;6161;43.014;25.840;2022-10-16T16:38:26;1.53;;;1.43;;
12196;SDS011;6161;43.014;25.840;2022-10-16T16:40:54;1.40;;;1.30;;
12196;SDS011;6161;43.014;25.840;2022-10-16T16:43:26;5.60;;;1.70;;